Time,TemperatureF,DewpointF,PressureIn,WindDirection,WindDirectionDegrees,WindSpeedMPH,WindSpeedGustMPH,Humidity,HourlyPrecipIn,Conditions,Clouds,dailyrainin,SoftwareType,DateUTC
2013-01-13 00:04:00,68.9,66.2,29.41,NW,315,0.0,0.0,91,0.00,CLR,SCT,0.00,WeatherDisplay:10.37,2013-01-13 09:04:00,
2013-01-13 00:09:00,68.9,66.2,29.41,NW,315,4.9,4.9,91,0.00,CLR,SCT,0.00,WeatherDisplay:10.37,2013-01-13 09:09:00,
2013-01-13 00:14:00,68.9,66.2,29.41,NW,315,3.6,3.6,91,0.00,CLR,SCT,0.00,WeatherDisplay:10.37,2013-01-13 09:14:00,
2013-01-13 00:19:00,68.7,66.0,29.41,NW,315,5.8,5.8,91,0.00,CLR,SCT,0.00,WeatherDisplay:10.37,2013-01-13 09:19:00,
2013-01-13 00:24:00,68.4,65.6,29.41,NW,315,4.6,4.6,91,0.00,CLR,SCT,0.00,WeatherDisplay:10.37,2013-01-13 09:24:00,
2013-01-13 00:29:00,68.2,65.5,29.41,NW,315,4.6,4.6,91,0.00,CLR,SCT,0.00,WeatherDisplay:10.37,2013-01-13 09:29:00,
2013-01-13 00:34:00,68.0,65.3,29.41,NNW,338,3.5,3.5,91,0.00,CLR,SCT,0.00,WeatherDisplay:10.37,2013-01-13 09:34:00,
2013-01-13 00:39:00,68.0,65.3,29.44,NW,315,4.6,4.6,91,0.00,CLR,SCT,0.00,WeatherDisplay:10.37,2013-01-13 09:39:00,
2013-01-13 00:44:00,68.0,65.3,29.44,NW,315,4.6,4.6,91,0.00,CLR,SCT,0.00,WeatherDisplay:10.37,2013-01-13 09:44:00,
2013-01-13 00:49:00,68.0,65.3,29.44,NW,315,0.0,0.0,91,0.00,CLR,SCT,0.00,WeatherDisplay:10.37,2013-01-13 09:49:00,
2013-01-13 00:54:00,68.0,65.3,29.44,NW,315,0.0,0.0,91,0.00,CLR,SCT,0.00,WeatherDisplay:10.37,2013-01-13 09:54:00,
2013-01-13 00:59:00,68.0,65.3,29.44,NW,315,0.0,0.0,91,0.00,CLR,SCT,0.00,WeatherDisplay:10.37,2013-01-13 09:59:00,
2013-01-13 01:04:00,68.0,65.3,29.44,NW,315,0.0,0.0,91,0.00,CLR,SCT,0.00,WeatherDisplay:10.37,2013-01-13 10:04:00,
2013-01-13 01:09:00,68.2,65.5,29.44,NNW,338,0.0,0.0,91,0.00,CLR,SCT,0.00,WeatherDisplay:10.37,2013-01-13 10:09:00,
2013-01-13 01:14:00,68.5,65.8,29.44,NNW,338,0.0,0.0,91,0.00,CLR,SCT,0.00,WeatherDisplay:10.37,2013-01-13 10:14:00,
2013-01-13 01:19:00,68.7,66.0,29.44,NNW,338,0.0,0.0,91,0.00,CLR,SCT,0.00,WeatherDisplay:10.37,2013-01-13 10:19:00,
2013-01-13 01:24:00,69.3,66.5,29.44,NNW,338,0.0,0.0,91,0.00,CLR,SCT,0.00,WeatherDisplay:10.37,2013-01-13 10:24:00,
2013-01-13 01:29:00,69.4,66.7,29.44,NNW,338,0.0,0.0,91,0.00,CLR,SCT,0.00,WeatherDisplay:10.37,2013-01-13 10:29:00,
2013-01-13 01:34:00,69.6,66.9,29.44,NNW,338,0.0,0.0,91,0.00,CLR,SCT,0.00,WeatherDisplay:10.37,2013-01-13 10:34:00,
2013-01-13 01:39:00,69.6,66.9,29.44,NNW,338,0.0,0.0,91,0.00,CLR,SCT,0.00,WeatherDisplay:10.37,2013-01-13 10:39:00,
2013-01-13 01:44:00,69.6,66.9,29.44,NNW,338,0.0,0.0,91,0.00,CLR,SCT,0.00,WeatherDisplay:10.37,2013-01-13 10:44:00,
2013-01-13 01:49:00,69.4,66.7,29.44,NNW,338,0.0,0.0,91,0.00,CLR,SCT,0.00,WeatherDisplay:10.37,2013-01-13 10:49:00,
2013-01-13 01:54:00,69.6,66.9,29.47,NNW,338,0.0,0.0,91,0.00,CLR,SCT,0.00,WeatherDisplay:10.37,2013-01-13 10:54:00,
2013-01-13 01:59:00,69.4,66.7,29.47,NW,315,4.9,4.9,91,0.00,CLR,SCT,0.00,WeatherDisplay:10.37,2013-01-13 10:59:00,
2013-01-13 02:04:00,69.1,66.3,29.47,NW,315,5.9,5.9,91,0.00,CLR,SCT,0.00,WeatherDisplay:10.37,2013-01-13 11:04:00,
2013-01-13 02:09:00,68.9,66.2,29.47,NW,315,4.6,0.0,91,0.00,CLR,SCT,0.00,WeatherDisplay:10.37,2013-01-13 11:09:00,
2013-01-13 02:14:00,69.1,66.3,29.47,NW,315,0.0,0.0,91,0.00,CLR,SCT,0.00,WeatherDisplay:10.37,2013-01-13 11:14:00,
2013-01-13 02:19:00,69.3,66.5,29.47,NW,315,0.0,0.0,91,0.00,CLR,SCT,0.00,WeatherDisplay:10.37,2013-01-13 11:19:00,
2013-01-13 02:24:00,69.3,66.5,29.47,NW,315,0.0,0.0,91,0.00,CLR,SCT,0.00,WeatherDisplay:10.37,2013-01-13 11:24:00,
2013-01-13 02:29:00,69.4,66.7,29.47,NW,315,0.0,0.0,91,0.00,CLR,SCT,0.00,WeatherDisplay:10.37,2013-01-13 11:29:00,
2013-01-13 02:34:00,69.6,66.9,29.47,NW,315,0.0,0.0,91,0.00,CLR,SCT,0.00,WeatherDisplay:10.37,2013-01-13 11:34:00,
2013-01-13 02:39:00,69.8,67.1,29.47,NW,315,0.0,0.0,91,0.00,CLR,SCT,0.00,WeatherDisplay:10.37,2013-01-13 11:39:00,
2013-01-13 02:44:00,70.0,67.2,29.47,NW,315,0.0,0.0,91,0.00,CLR,SCT,0.00,WeatherDisplay:10.37,2013-01-13 11:44:00,
2013-01-13 02:49:00,70.0,67.2,29.47,NW,315,3.1,0.0,91,0.00,CLR,SCT,0.00,WeatherDisplay:10.37,2013-01-13 11:49:00,
2013-01-13 02:54:00,70.2,67.4,29.50,NW,315,3.6,3.6,91,0.00,CLR,SCT,0.00,WeatherDisplay:10.37,2013-01-13 11:54:00,
2013-01-13 02:59:00,70.2,67.4,29.50,NW,315,3.1,3.1,91,0.00,CLR,SCT,0.00,WeatherDisplay:10.37,2013-01-13 11:59:00,
2013-01-13 03:04:00,70.2,67.4,29.50,NW,315,3.5,3.5,91,0.00,CLR,SCT,0.00,WeatherDisplay:10.37,2013-01-13 12:04:00,
2013-01-13 03:09:00,70.3,67.6,29.50,NW,315,0.0,0.0,91,0.00,CLR,SCT,0.00,WeatherDisplay:10.37,2013-01-13 12:09:00,
2013-01-13 03:14:00,70.3,67.6,29.50,NW,315,0.0,0.0,91,0.00,CLR,SCT,0.00,WeatherDisplay:10.37,2013-01-13 12:14:00,
2013-01-13 03:19:00,70.5,67.8,29.50,NW,315,0.0,0.0,91,0.00,CLR,SCT,0.00,WeatherDisplay:10.37,2013-01-13 12:19:00,
2013-01-13 03:24:00,70.5,67.8,29.47,NW,315,0.0,0.0,91,0.00,CLR,SCT,0.00,WeatherDisplay:10.37,2013-01-13 12:24:00,
2013-01-13 03:29:00,70.5,67.8,29.47,NW,315,0.0,0.0,91,0.00,CLR,SCT,0.00,WeatherDisplay:10.37,2013-01-13 12:29:00,
2013-01-13 03:34:00,70.7,67.9,29.47,NW,315,0.0,0.0,91,0.00,CLR,SCT,0.00,WeatherDisplay:10.37,2013-01-13 12:34:00,
2013-01-13 03:39:00,70.9,68.1,29.47,NW,315,0.0,0.0,91,0.00,CLR,SCT,0.00,WeatherDisplay:10.37,2013-01-13 12:39:00,
2013-01-13 03:44:00,71.4,68.7,29.47,NW,315,0.0,0.0,91,0.00,CLR,SCT,0.00,WeatherDisplay:10.37,2013-01-13 12:44:00,
2013-01-13 03:49:00,71.8,68.7,29.47,NW,315,0.0,0.0,90,0.00,CLR,SCT,0.00,WeatherDisplay:10.37,2013-01-13 12:49:00,
2013-01-13 03:54:00,72.1,69.0,29.47,NW,315,2.3,0.0,90,0.00,CLR,SCT,0.00,WeatherDisplay:10.37,2013-01-13 12:54:00,
2013-01-13 03:59:00,72.5,69.4,29.47,NW,315,0.0,0.0,90,0.00,CLR,SCT,0.00,WeatherDisplay:10.37,2013-01-13 12:59:00,
2013-01-13 04:04:00,72.9,69.8,29.47,NW,315,0.0,0.0,90,0.00,CLR,SCT,0.00,WeatherDisplay:10.37,2013-01-13 13:04:00,
2013-01-13 04:09:00,73.0,69.9,29.47,NW,315,0.0,0.0,90,0.00,CLR,SCT,0.00,WeatherDisplay:10.37,2013-01-13 13:09:00,
2013-01-13 04:14:00,73.4,70.3,29.47,NW,315,0.0,0.0,90,0.00,CLR,SCT,0.00,WeatherDisplay:10.37,2013-01-13 13:14:00,
2013-01-13 04:19:00,72.9,69.8,29.47,NW,315,0.0,0.0,90,0.00,CLR,SCT,0.00,WeatherDisplay:10.37,2013-01-13 13:19:00,
2013-01-13 04:24:00,73.2,70.4,29.47,NW,315,0.0,0.0,91,0.00,CLR,SCT,0.00,WeatherDisplay:10.37,2013-01-13 13:24:00,
2013-01-13 04:29:00,73.4,70.3,29.47,NW,315,0.0,0.0,90,0.00,CLR,SCT,0.00,WeatherDisplay:10.37,2013-01-13 13:29:00,
2013-01-13 04:34:00,74.1,71.0,29.47,NW,315,0.0,0.0,90,0.00,CLR,SCT,0.00,WeatherDisplay:10.37,2013-01-13 13:34:00,
2013-01-13 04:39:00,74.5,71.4,29.47,NW,315,0.0,0.0,90,0.00,CLR,SCT,0.00,WeatherDisplay:10.37,2013-01-13 13:39:00,
2013-01-13 04:44:00,74.5,71.4,29.47,NW,315,0.0,0.0,90,0.00,CLR,SCT,0.00,WeatherDisplay:10.37,2013-01-13 13:44:00,
2013-01-13 04:49:00,73.2,70.4,29.47,NW,315,0.0,0.0,91,0.00,CLR,SCT,0.00,WeatherDisplay:10.37,2013-01-13 13:49:00,
2013-01-13 04:55:00,73.4,70.3,29.47,NW,315,0.0,0.0,90,0.00,CLR,SCT,0.00,WeatherDisplay:10.37,2013-01-13 13:55:00,
2013-01-13 05:00:00,73.8,70.6,29.47,NW,315,0.0,0.0,90,0.00,CLR,SCT,0.00,WeatherDisplay:10.37,2013-01-13 14:00:00,
2013-01-13 05:05:00,73.9,70.8,29.47,NW,315,0.0,0.0,90,0.00,CLR,SCT,0.00,WeatherDisplay:10.37,2013-01-13 14:05:00,
2013-01-13 05:10:00,74.1,71.0,29.47,NW,315,0.0,0.0,90,0.00,CLR,SCT,0.00,WeatherDisplay:10.37,2013-01-13 14:10:00,
2013-01-13 05:15:00,74.1,71.0,29.47,NW,315,0.0,0.0,90,0.00,CLR,SCT,0.00,WeatherDisplay:10.37,2013-01-13 14:15:00,
2013-01-13 05:20:00,74.5,71.4,29.47,NW,315,0.0,0.0,90,0.00,CLR,SCT,0.00,WeatherDisplay:10.37,2013-01-13 14:20:00,
2013-01-13 05:25:00,75.6,72.4,29.47,NW,315,0.0,0.0,90,0.00,CLR,SCT,0.00,WeatherDisplay:10.37,2013-01-13 14:25:00,
2013-01-13 05:30:00,75.2,72.1,29.47,NW,315,0.0,0.0,90,0.00,CLR,SCT,0.00,WeatherDisplay:10.37,2013-01-13 14:30:00,
2013-01-13 05:35:00,75.7,72.6,29.47,NW,315,0.0,0.0,90,0.00,CLR,SCT,0.00,WeatherDisplay:10.37,2013-01-13 14:35:00,
2013-01-13 05:40:00,76.5,73.3,29.47,NW,315,0.0,0.0,90,0.00,CLR,SCT,0.00,WeatherDisplay:10.37,2013-01-13 14:40:00,
2013-01-13 05:45:00,76.8,73.7,29.47,NW,315,0.0,0.0,90,0.00,CLR,SCT,0.00,WeatherDisplay:10.37,2013-01-13 14:45:00,
2013-01-13 05:50:00,77.0,73.8,29.47,NW,315,0.0,0.0,90,0.00,CLR,SCT,0.00,WeatherDisplay:10.37,2013-01-13 14:50:00,
2013-01-13 05:55:00,76.5,73.3,29.47,NW,315,3.6,0.0,90,0.00,CLR,SCT,0.00,WeatherDisplay:10.37,2013-01-13 14:55:00,
2013-01-13 06:00:00,75.6,72.4,29.47,NW,315,3.5,3.5,90,0.00,CLR,SCT,0.00,WeatherDisplay:10.37,2013-01-13 15:00:00,
2013-01-13 06:05:00,74.7,71.5,29.47,NNW,338,4.6,4.6,90,0.00,CLR,SCT,0.00,WeatherDisplay:10.37,2013-01-13 15:05:00,
2013-01-13 06:10:00,73.9,70.8,29.47,NW,315,4.6,4.6,90,0.00,CLR,SCT,0.00,WeatherDisplay:10.37,2013-01-13 15:10:00,
2013-01-13 06:15:00,73.4,70.3,29.47,NW,315,2.3,0.0,90,0.00,CLR,SCT,0.00,WeatherDisplay:10.37,2013-01-13 15:15:00,
2013-01-13 06:20:00,73.2,70.4,29.50,NW,315,4.6,4.6,91,0.00,CLR,SCT,0.00,WeatherDisplay:10.37,2013-01-13 15:20:00,
2013-01-13 06:25:00,73.0,70.3,29.50,NW,315,3.5,3.5,91,0.00,CLR,SCT,0.00,WeatherDisplay:10.37,2013-01-13 15:25:00,
2013-01-13 06:30:00,72.9,70.1,29.50,NW,315,2.6,2.6,91,0.00,CLR,SCT,0.00,WeatherDisplay:10.37,2013-01-13 15:30:00,
2013-01-13 06:35:00,72.9,70.1,29.47,NW,315,4.6,4.6,91,0.00,CLR,SCT,0.00,WeatherDisplay:10.37,2013-01-13 15:35:00,
2013-01-13 06:40:00,72.7,69.9,29.47,NW,315,4.0,4.0,91,0.00,CLR,SCT,0.00,WeatherDisplay:10.37,2013-01-13 15:40:00,
2013-01-13 06:45:00,72.9,70.1,29.47,NW,315,5.8,5.8,91,0.00,CLR,SCT,0.00,WeatherDisplay:10.37,2013-01-13 15:45:00,
2013-01-13 06:50:00,72.9,70.1,29.47,NW,315,4.6,4.6,91,0.00,CLR,SCT,0.00,WeatherDisplay:10.37,2013-01-13 15:50:00,
2013-01-13 06:55:00,73.0,70.3,29.47,NW,315,3.5,3.5,91,0.00,CLR,SCT,0.00,WeatherDisplay:10.37,2013-01-13 15:55:00,
2013-01-13 07:00:00,73.0,70.3,29.47,NW,315,3.5,3.6,91,0.00,CLR,SCT,0.00,WeatherDisplay:10.37,2013-01-13 16:00:00,
2013-01-13 07:05:00,73.2,70.4,29.47,NW,315,2.3,2.3,91,0.00,CLR,SCT,0.00,WeatherDisplay:10.37,2013-01-13 16:05:00,
2013-01-13 07:10:00,73.4,70.3,29.47,NW,315,4.6,4.6,90,0.00,CLR,SCT,0.00,WeatherDisplay:10.37,2013-01-13 16:10:00,
2013-01-13 07:15:00,73.4,70.3,29.47,NNW,338,0.0,0.0,90,0.00,CLR,SCT,0.00,WeatherDisplay:10.37,2013-01-13 16:15:00,
2013-01-13 07:20:00,73.6,70.5,29.47,NNW,338,0.0,0.0,90,0.00,CLR,SCT,0.00,WeatherDisplay:10.37,2013-01-13 16:20:00,
2013-01-13 07:25:00,73.9,70.8,29.47,NNW,338,0.0,0.0,90,0.00,CLR,SCT,0.00,WeatherDisplay:10.37,2013-01-13 16:25:00,
2013-01-13 07:30:00,74.3,71.2,29.47,NNW,338,0.0,0.0,90,0.00,CLR,SCT,0.00,WeatherDisplay:10.37,2013-01-13 16:30:00,
2013-01-13 07:35:00,74.5,71.4,29.47,NNW,338,0.0,0.0,90,0.00,CLR,SCT,0.00,WeatherDisplay:10.37,2013-01-13 16:35:00,
2013-01-13 07:40:00,74.8,71.7,29.47,NNW,338,0.0,0.0,90,0.00,CLR,SCT,0.00,WeatherDisplay:10.37,2013-01-13 16:40:00,
2013-01-13 07:45:00,75.2,72.1,29.47,NNW,338,0.0,0.0,90,0.00,CLR,SCT,0.00,WeatherDisplay:10.37,2013-01-13 16:45:00,
2013-01-13 07:49:00,75.2,72.1,29.47,NNW,338,0.0,0.0,90,0.00,CLR,SCT,0.00,WeatherDisplay:10.37,2013-01-13 16:49:00,
2013-01-13 07:50:00,75.2,72.1,29.47,NNW,338,0.0,0.0,90,0.00,CLR,SCT,0.00,WeatherDisplay:10.37,2013-01-13 16:50:00,
2013-01-13 07:55:00,75.2,72.1,29.47,NNW,338,0.0,0.0,90,0.00,CLR,SCT,0.00,WeatherDisplay:10.37,2013-01-13 16:55:00,
2013-01-13 08:28:00,75.2,72.1,29.47,NNW,338,0.0,0.0,90,0.00,CLR,SCT,0.00,WeatherDisplay:10.37,2013-01-13 17:28:00,
2013-01-13 08:45:00,75.2,72.1,29.47,NNW,338,0.0,0.0,90,0.00,CLR,SCT,0.00,WeatherDisplay:10.37,2013-01-13 17:45:00,
2013-01-13 08:50:00,75.2,72.1,29.47,NNW,338,0.0,0.0,90,0.00,CLR,SCT,0.00,WeatherDisplay:10.37,2013-01-13 17:50:00,
2013-01-13 08:55:00,75.2,72.1,29.47,NNW,338,0.0,0.0,90,0.00,CLR,SCT,0.00,WeatherDisplay:10.37,2013-01-13 17:55:00,
2013-01-13 09:30:00,75.2,72.1,29.47,NNW,338,0.0,0.0,90,0.00,CLR,SCT,0.00,WeatherDisplay:10.37,2013-01-13 18:30:00,
2013-01-13 09:35:00,75.2,72.1,29.47,NNW,338,0.0,0.0,90,0.00,CLR,SCT,0.00,WeatherDisplay:10.37,2013-01-13 18:35:00,
2013-01-13 10:05:00,75.2,72.1,29.47,NNW,338,0.0,0.0,90,0.00,CLR,SCT,0.00,WeatherDisplay:10.37,2013-01-13 19:05:00,
2013-01-13 10:22:00,75.2,72.1,29.47,NNW,338,0.0,0.0,90,0.00,CLR,SCT,0.00,WeatherDisplay:10.37,2013-01-13 19:22:00,
2013-01-13 10:35:00,75.2,72.1,29.47,NNW,338,0.0,0.0,90,0.00,CLR,SCT,0.00,WeatherDisplay:10.37,2013-01-13 19:35:00,
2013-01-13 11:03:00,75.2,72.1,29.47,NNW,338,0.0,0.0,90,0.00,CLR,SCT,0.00,WeatherDisplay:10.37,2013-01-13 20:03:00,
2013-01-13 11:12:00,75.2,72.1,29.47,NNW,338,0.0,0.0,90,0.00,CLR,SCT,0.00,WeatherDisplay:10.37,2013-01-13 20:12:00,
2013-01-13 11:25:00,75.2,72.1,29.47,NNW,338,0.0,0.0,90,0.00,CLR,SCT,0.00,WeatherDisplay:10.37,2013-01-13 20:25:00,
2013-01-13 11:30:00,75.2,72.1,29.47,NNW,338,0.0,0.0,90,0.00,CLR,SCT,0.00,WeatherDisplay:10.37,2013-01-13 20:30:00,
2013-01-13 11:36:00,75.2,72.1,29.47,NNW,338,0.0,0.0,90,0.00,CLR,SCT,0.00,WeatherDisplay:10.37,2013-01-13 20:36:00,
2013-01-13 11:51:00,75.2,72.1,29.47,NNW,338,0.0,0.0,90,0.00,CLR,SCT,0.00,WeatherDisplay:10.37,2013-01-13 20:51:00,
2013-01-13 12:08:00,75.2,72.1,29.47,NNW,338,0.0,0.0,90,0.00,CLR,SCT,0.00,WeatherDisplay:10.37,2013-01-13 21:08:00,
2013-01-13 12:18:00,75.2,72.1,29.47,NNW,338,0.0,0.0,90,0.00,CLR,SCT,0.00,WeatherDisplay:10.37,2013-01-13 21:18:00,
2013-01-13 12:38:00,75.2,72.1,29.47,NNW,338,0.0,0.0,90,0.00,CLR,SCT,0.00,WeatherDisplay:10.37,2013-01-13 21:38:00,
2013-01-13 12:47:00,75.2,72.1,29.47,NNW,338,0.0,0.0,90,0.00,CLR,SCT,0.00,WeatherDisplay:10.37,2013-01-13 21:47:00,
2013-01-13 12:56:00,75.2,72.1,29.47,NNW,338,0.0,0.0,90,0.00,CLR,SCT,0.00,WeatherDisplay:10.37,2013-01-13 21:56:00,
2013-01-13 13:31:00,75.2,72.1,29.47,NNW,338,0.0,0.0,90,0.00,CLR,SCT,0.00,WeatherDisplay:10.37,2013-01-13 22:31:00,
2013-01-13 13:43:00,75.2,72.1,29.47,NNW,338,0.0,0.0,90,0.00,CLR,SCT,0.00,WeatherDisplay:10.37,2013-01-13 22:43:00,
2013-01-13 14:00:00,75.2,72.1,29.47,NNW,338,0.0,0.0,90,0.00,CLR,SCT,0.00,WeatherDisplay:10.37,2013-01-13 23:00:00,
2013-01-13 14:08:00,75.2,72.1,29.47,NNW,338,0.0,0.0,90,0.00,CLR,SCT,0.00,WeatherDisplay:10.37,2013-01-13 23:08:00,
2013-01-13 14:20:00,75.2,72.1,29.47,NNW,338,0.0,0.0,90,0.00,CLR,SCT,0.00,WeatherDisplay:10.37,2013-01-13 23:20:00,
2013-01-13 14:33:00,75.2,72.1,29.47,NNW,338,0.0,0.0,90,0.00,CLR,SCT,0.00,WeatherDisplay:10.37,2013-01-13 23:33:00,
2013-01-13 14:53:00,75.2,72.1,29.47,NNW,338,0.0,0.0,90,0.00,CLR,SCT,0.00,WeatherDisplay:10.37,2013-01-13 23:53:00,
2013-01-13 16:06:00,75.2,72.1,29.47,NNW,338,0.0,0.0,90,0.00,CLR,SCT,0.00,WeatherDisplay:10.37,2013-01-14 01:06:00,
2013-01-13 16:27:00,75.2,72.1,29.47,NNW,338,0.0,0.0,90,0.00,CLR,SCT,0.00,WeatherDisplay:10.37,2013-01-14 01:27:00,
2013-01-13 16:43:00,75.2,72.1,29.47,NNW,338,0.0,0.0,90,0.00,CLR,SCT,0.00,WeatherDisplay:10.37,2013-01-14 01:43:00,
2013-01-13 17:00:00,75.2,72.1,29.47,NNW,338,0.0,0.0,90,0.00,CLR,SCT,0.00,WeatherDisplay:10.37,2013-01-14 02:00:00,
2013-01-13 17:35:00,75.2,72.1,29.47,NNW,338,0.0,0.0,90,0.00,CLR,SCT,0.00,WeatherDisplay:10.37,2013-01-14 02:35:00,
2013-01-13 17:45:00,75.2,72.1,29.47,NNW,338,0.0,0.0,90,0.00,CLR,SCT,0.00,WeatherDisplay:10.37,2013-01-14 02:45:00,
2013-01-13 18:03:00,75.2,72.1,29.47,NNW,338,0.0,0.0,90,0.00,CLR,SCT,0.00,WeatherDisplay:10.37,2013-01-14 03:03:00,
2013-01-13 18:08:00,75.2,72.1,29.47,NNW,338,0.0,0.0,90,0.00,CLR,SCT,0.00,WeatherDisplay:10.37,2013-01-14 03:08:00,
2013-01-13 18:29:00,75.2,72.1,29.47,NNW,338,0.0,0.0,90,0.00,CLR,SCT,0.00,WeatherDisplay:10.37,2013-01-14 03:29:00,
2013-01-13 18:51:00,75.2,72.1,29.47,NNW,338,0.0,0.0,90,0.00,CLR,SCT,0.00,WeatherDisplay:10.37,2013-01-14 03:51:00,
2013-01-13 18:59:00,75.2,72.1,29.47,NNW,338,0.0,0.0,90,0.00,CLR,SCT,0.00,WeatherDisplay:10.37,2013-01-14 03:59:00,
2013-01-13 19:04:00,75.2,72.1,29.47,NNW,338,0.0,0.0,90,0.00,CLR,SCT,0.00,WeatherDisplay:10.37,2013-01-14 04:04:00,
2013-01-13 19:29:00,75.2,72.1,29.47,NNW,338,0.0,0.0,90,0.00,CLR,SCT,0.00,WeatherDisplay:10.37,2013-01-14 04:29:00,
2013-01-13 19:34:00,75.2,72.1,29.47,NNW,338,0.0,0.0,90,0.00,CLR,SCT,0.00,WeatherDisplay:10.37,2013-01-14 04:34:00,
2013-01-13 19:46:00,75.2,72.1,29.47,NNW,338,0.0,0.0,90,0.00,CLR,SCT,0.00,WeatherDisplay:10.37,2013-01-14 04:46:00,
2013-01-13 19:56:00,75.2,72.1,29.47,NNW,338,0.0,0.0,90,0.00,CLR,SCT,0.00,WeatherDisplay:10.37,2013-01-14 04:56:00,
2013-01-13 20:07:00,75.2,72.1,29.47,NNW,338,0.0,0.0,90,0.00,CLR,SCT,0.00,WeatherDisplay:10.37,2013-01-14 05:07:00,
2013-01-13 20:21:00,75.2,72.1,29.47,NNW,338,0.0,0.0,90,0.00,CLR,SCT,0.00,WeatherDisplay:10.37,2013-01-14 05:21:00,
2013-01-13 20:29:00,75.2,72.1,29.47,NNW,338,0.0,0.0,90,0.00,CLR,SCT,0.00,WeatherDisplay:10.37,2013-01-14 05:29:00,
2013-01-13 21:39:00,75.2,72.1,29.47,NNW,338,0.0,0.0,90,0.00,CLR,SCT,0.00,WeatherDisplay:10.37,2013-01-14 06:39:00,
2013-01-13 21:44:00,75.2,72.1,29.47,NNW,338,0.0,0.0,90,0.00,CLR,SCT,0.00,WeatherDisplay:10.37,2013-01-14 06:44:00,
2013-01-13 22:11:00,75.2,72.1,29.47,NNW,338,0.0,0.0,90,0.00,CLR,SCT,0.00,WeatherDisplay:10.37,2013-01-14 07:11:00,
2013-01-13 22:38:00,75.2,72.1,29.47,NNW,338,0.0,0.0,90,0.00,CLR,SCT,0.00,WeatherDisplay:10.37,2013-01-14 07:38:00,
2013-01-13 22:50:00,75.2,72.1,29.47,NNW,338,0.0,0.0,90,0.00,CLR,SCT,0.00,WeatherDisplay:10.37,2013-01-14 07:50:00,
2013-01-13 22:59:00,75.2,72.1,29.47,NNW,338,0.0,0.0,90,0.00,CLR,SCT,0.00,WeatherDisplay:10.37,2013-01-14 07:59:00,
2013-01-13 23:20:00,75.2,72.1,29.47,NNW,338,0.0,0.0,90,0.00,CLR,SCT,0.00,WeatherDisplay:10.37,2013-01-14 08:20:00,
2013-01-13 23:51:00,75.2,72.1,29.47,NNW,338,0.0,0.0,90,0.00,CLR,SCT,0.00,WeatherDisplay:10.37,2013-01-14 08:51:00,
2013-01-13 23:56:00,75.2,72.1,29.47,NNW,338,0.0,0.0,90,0.00,CLR,SCT,0.00,WeatherDisplay:10.37,2013-01-14 08:56:00,